Terminal Aerodrome Forecast
Issued by NWS Springfield, MO

Home | Current Version | Previous Version | Text Only | Print | Product List | Glossary On
Versions: 1 2 3 4 5 6 7 8 9 10 11 12 13 14 15 16 17 18 19 20 21 22 23 24 25 26
794
FTUS43 KSGF 260520
TAFSGF
TAF
KSGF 260520Z 2606/2706 15015G20KT P6SM SCT030
     FM260900 17010KT 5SM BR BKN007
     FM261200 16010KT 4SM BR OVC004
     FM261500 18012KT P6SM VCTS BKN015CB
     FM261800 18013G20KT P6SM VCTS BKN030CB
     FM262300 17010KT P6SM SCT035 OVC200=

USA.gov is the U.S. government's official web portal to all federal, state and local government web resources and services.